Latest Weather Observations for Kurnell

IDN60801

Issued at 6:03 am EDT Tuesday 17 January 2017 (issued every 30 minutes, with the page automatically refreshed every 10 minutes)

About weather observations | Map of weather stations | Latest weather observations for NSW | Other Formats
Station Details ID: 066043 Name: KURNELL AWS Lat: -34.00 Lon: 151.21 Height: 4.0 m
Data from the previous 72 hours. | See also: Recent months for locations in New South Wales
Date/Time
EDT
Temp
°C
App
Temp
°C
Dew
Point
°C
Rel
Hum
%
Delta-T
°C
Wind Press
QNH
hPa
Press
MSL
hPa
Rain since
9am
mm
Dir  Spd
km/h
Gust
km/h
Spd
kts
Gust
kts
17/06:00am - - - - - N 19 19 10 10 - - -
17/05:30am - - - - - NNE 13 15 7 8 - - -
17/05:00am - - - - - NNE 13 15 7 8 - - -
17/04:30am - - - - - NNE 13 17 7 9 - - -
17/04:00am - - - - - NNE 13 15 7 8 - - -
17/03:30am - - - - - NNE 13 17 7 9 - - -
17/03:00am - - - - - NE 13 15 7 8 - - -
17/02:30am - - - - - NE 13 15 7 8 - - -
17/02:00am - - - - - NNE 15 19 8 10 - - -
17/01:30am - - - - - NNE 17 22 9 12 - - -
17/01:00am - - - - - NNE 19 26 10 14 - - -
17/12:30am - - - - - NNE 22 28 12 15 - - -
17/12:00am - - - - - N 24 30 13 16 - - -
 
Date/Time
EDT
Temp
°C
App
Temp
°C
Dew
Point
°C
Rel
Hum
%
Delta-T
°C
Wind Press
QNH
hPa
Press
MSL
hPa
Rain since
9am
mm
Dir  Spd
km/h
Gust
km/h
Spd
kts
Gust
kts
16/11:30pm - - - - - NNE 24 30 13 16 - - -
16/11:00pm - - - - - NNE 26 32 14 17 - - -
16/10:30pm - - - - - NNE 22 30 12 16 - - -
16/10:00pm - - - - - NNE 28 35 15 19 - - -
16/09:30pm - - - - - NNE 32 41 17 22 - - -
16/09:00pm - - - - - NE 33 41 18 22 - - -
16/08:30pm - - - - - NE 33 41 18 22 - - -
16/08:00pm - - - - - NE 32 44 17 24 - - -
16/07:30pm - - - - - NE 33 43 18 23 - - -
16/07:00pm - - - - - NE 39 46 21 25 - - -
16/06:30pm - - - - - NE 43 54 23 29 - - -
16/06:00pm - - - - - NE 43 54 23 29 - - -
16/05:30pm - - - - - NE 41 54 22 29 - - -
16/05:00pm - - - - - NE 41 50 22 27 - - -
16/04:30pm - - - - - NE 39 48 21 26 - - -
16/04:00pm - - - - - NE 43 52 23 28 - - -
16/03:30pm - - - - - NE 37 48 20 26 - - -
16/03:00pm - - - - - NE 43 52 23 28 - - -
16/02:30pm - - - - - NE 41 52 22 28 - - -
16/02:00pm - - - - - NE 41 50 22 27 - - -
16/01:30pm - - - - - NE 37 48 20 26 - - -
16/01:00pm - - - - - NE 44 52 24 28 - - -
16/12:30pm - - - - - NE 39 48 21 26 - - -
16/12:00pm - - - - - NE 41 50 22 27 - - -
16/11:30am - - - - - NE 35 41 19 22 - - -
16/11:00am - - - - - NE 35 41 19 22 - - -
16/10:30am - - - - - NE 35 39 19 21 - - -
16/10:00am - - - - - NE 28 35 15 19 - - -
16/09:30am - - - - - NNE 30 35 16 19 - - -
16/09:00am - - - - - NNE 24 32 13 17 - - -
16/08:30am - - - - - N 24 30 13 16 - - -
16/08:00am - - - - - N 24 30 13 16 - - -
16/07:30am - - - - - N 17 26 9 14 - - -
16/07:00am - - - - - N 15 20 8 11 - - -
16/06:30am - - - - - NNE 17 20 9 11 - - -
16/06:00am - - - - - N 15 20 8 11 - - -
16/05:30am - - - - - N 17 19 9 10 - - -
16/05:00am - - - - - N 19 22 10 12 - - -
16/04:30am - - - - - NNE 19 22 10 12 - - -
16/04:00am - - - - - NNE 20 26 11 14 - - -
16/03:30am - - - - - NNE 20 26 11 14 - - -
16/03:00am - - - - - NNE 20 26 11 14 - - -
16/02:30am - - - - - NNE 13 17 7 9 - - -
16/02:00am - - - - - NNE 17 20 9 11 - - -
16/01:30am - - - - - NNE 19 22 10 12 - - -
16/01:00am - - - - - NNE 17 22 9 12 - - -
16/12:30am - - - - - NNE 17 22 9 12 - - -
16/12:00am - - - - - NE 20 26 11 14 - - -
 
Date/Time
EDT
Temp
°C
App
Temp
°C
Dew
Point
°C
Rel
Hum
%
Delta-T
°C
Wind Press
QNH
hPa
Press
MSL
hPa
Rain since
9am
mm
Dir  Spd
km/h
Gust
km/h
Spd
kts
Gust
kts
15/11:30pm - - - - - ENE 13 19 7 10 - - -
15/11:00pm - - - - - ENE 22 26 12 14 - - -
15/10:30pm - - - - - ENE 22 26 12 14 - - -
15/10:00pm - - - - - ENE 22 28 12 15 - - -
15/09:30pm - - - - - ENE 22 28 12 15 - - -
15/09:00pm - - - - - ENE 24 30 13 16 - - -
15/08:30pm - - - - - E 24 30 13 16 - - -
15/08:00pm - - - - - ENE 22 28 12 15 - - -
15/07:30pm - - - - - ENE 24 30 13 16 - - -
15/07:00pm - - - - - E 22 28 12 15 - - -
15/06:30pm - - - - - E 20 28 11 15 - - -
15/06:00pm - - - - - E 22 28 12 15 - - -
15/05:30pm - - - - - E 20 28 11 15 - - -
15/05:00pm - - - - - E 22 28 12 15 - - -
15/04:30pm - - - - - E 24 28 13 15 - - -
15/04:00pm - - - - - E 20 28 11 15 - - -
15/03:30pm - - - - - E 22 28 12 15 - - -
15/03:00pm - - - - - E 20 30 11 16 - - -
15/02:30pm - - - - - E 20 28 11 15 - - -
15/02:00pm - - - - - ESE 24 32 13 17 - - -
15/01:30pm - - - - - ESE 24 32 13 17 - - -
15/01:00pm - - - - - SE 28 35 15 19 - - -
15/12:30pm - - - - - SE 28 35 15 19 - - -
15/12:00pm - - - - - SE 26 33 14 18 - - -
15/11:30am - - - - - SE 28 32 15 17 - - -
15/11:00am - - - - - SE 26 32 14 17 - - -
15/10:30am - - - - - SE 19 28 10 15 - - -
15/10:00am - - - - - SE 24 30 13 16 - - -
15/09:30am - - - - - SE 17 22 9 12 - - -
15/09:00am - - - - - SE 17 20 9 11 - - -
15/08:30am - - - - - SE 17 19 9 10 - - -
15/08:00am - - - - - ESE 15 19 8 10 - - -
15/07:30am - - - - - ESE 11 15 6 8 - - -
15/07:00am - - - - - ESE 9 11 5 6 - - -
15/06:30am - - - - - SE 11 15 6 8 - - -
15/06:00am - - - - - SE 9 13 5 7 - - -
15/05:30am - - - - - ESE 11 13 6 7 - - -
15/05:00am - - - - - SE 13 17 7 9 - - -
15/04:30am - - - - - SE 15 19 8 10 - - -
15/04:00am - - - - - ESE 15 20 8 11 - - -
15/03:30am - - - - - SE 17 22 9 12 - - -
15/03:00am - - - - - ESE 17 22 9 12 - - -
15/02:30am - - - - - SE 17 24 9 13 - - -
15/02:00am - - - - - SE 15 24 8 13 - - -
15/01:30am - - - - - SE 17 22 9 12 - - -
15/01:00am - - - - - SSE 13 17 7 9 - - -
15/12:30am - - - - - SE 15 22 8 12 - - -
15/12:00am - - - - - SE 22 30 12 16 - - -
 
Date/Time
EDT
Temp
°C
App
Temp
°C
Dew
Point
°C
Rel
Hum
%
Delta-T
°C
Wind Press
QNH
hPa
Press
MSL
hPa
Rain since
9am
mm
Dir  Spd
km/h
Gust
km/h
Spd
kts
Gust
kts
14/11:30pm - - - - - SE 20 32 11 17 - - -
14/11:00pm - - - - - SE 24 33 13 18 - - -
14/10:30pm - - - - - SSE 13 19 7 10 - - -
14/10:00pm - - - - - SE 20 30 11 16 - - -
14/09:30pm - - - - - SE 19 30 10 16 - - -
14/09:00pm - - - - - SE 19 26 10 14 - - -
14/08:30pm - - - - - SE 22 28 12 15 - - -
14/08:00pm - - - - - SE 22 30 12 16 - - -
14/07:30pm - - - - - SE 19 26 10 14 - - -
14/07:00pm - - - - - SE 20 28 11 15 - - -
14/06:30pm - - - - - SE 20 30 11 16 - - -
14/06:00pm - - - - - SSE 26 33 14 18 - - -
14/05:30pm - - - - - SSE 28 33 15 18 - - -
14/05:00pm - - - - - SE 26 33 14 18 - - -
14/04:30pm - - - - - SE 24 32 13 17 - - -
14/04:00pm - - - - - SE 20 30 11 16 - - -
14/03:30pm - - - - - SE 24 33 13 18 - - -
14/03:00pm - - - - - SE 26 32 14 17 - - -
14/02:30pm - - - - - SE 20 30 11 16 - - -
14/02:00pm - - - - - ESE 22 30 12 16 - - -
14/01:30pm - - - - - SE 19 24 10 13 - - -
14/01:00pm - - - - - SSE 20 28 11 15 - - -
14/12:30pm - - - - - S 19 26 10 14 - - -
14/12:00pm - - - - - S 17 28 9 15 - - -
14/11:30am - - - - - S 26 32 14 17 - - -
14/11:00am - - - - - S 28 35 15 19 - - -
14/10:30am - - - - - S 22 28 12 15 - - -
14/10:00am - - - - - S 15 20 8 11 - - -
14/09:30am - - - - - S 13 17 7 9 - - -
14/09:00am - - - - - SSW 11 15 6 8 - - -
14/08:30am - - - - - SSW 13 15 7 8 - - -
14/08:00am - - - - - W 6 9 3 5 - - -
14/07:30am - - - - - CALM 0 0 0 0 - - -
14/07:00am - - - - - NW 6 9 3 5 - - -
14/06:30am - - - - - NW 2 6 1 3 - - -

Other Formats:

Comma delimited format used in spreadsheet applications
http://www.bom.gov.au/fwo/IDN60801/IDN60801.95756.axf

JavaScript Object Notation format (JSON) in row-major order
http://www.bom.gov.au/fwo/IDN60801/IDN60801.95756.json